sensor_id;sensor_type;location;lat;lon;timestamp;temperature;humidity
7163;DHT22;3623;47.098;15.446;2023-04-30T00:00:26;11.00;99.90
7163;DHT22;3623;47.098;15.446;2023-04-30T00:02:53;11.10;99.90
7163;DHT22;3623;47.098;15.446;2023-04-30T00:05:21;11.10;99.90
7163;DHT22;3623;47.098;15.446;2023-04-30T00:07:48;11.10;99.90
7163;DHT22;3623;47.098;15.446;2023-04-30T00:10:15;11.20;99.90
7163;DHT22;3623;47.098;15.446;2023-04-30T00:12:43;11.20;99.90
7163;DHT22;3623;47.098;15.446;2023-04-30T00:15:10;11.20;99.90
7163;DHT22;3623;47.098;15.446;2023-04-30T00:17:38;11.20;99.90
7163;DHT22;3623;47.098;15.446;2023-04-30T00:20:06;11.20;99.90
7163;DHT22;3623;47.098;15.446;2023-04-30T00:22:33;11.20;99.90
7163;DHT22;3623;47.098;15.446;2023-04-30T00:25:00;11.20;99.90
7163;DHT22;3623;47.098;15.446;2023-04-30T00:27:27;11.30;99.90
7163;DHT22;3623;47.098;15.446;2023-04-30T00:29:57;11.20;99.90
7163;DHT22;3623;47.098;15.446;2023-04-30T00:32:24;11.20;99.90
7163;DHT22;3623;47.098;15.446;2023-04-30T00:34:51;11.20;99.90
7163;DHT22;3623;47.098;15.446;2023-04-30T00:37:18;11.20;99.90
7163;DHT22;3623;47.098;15.446;2023-04-30T00:39:46;11.10;99.90
7163;DHT22;3623;47.098;15.446;2023-04-30T00:42:13;11.10;99.90
7163;DHT22;3623;47.098;15.446;2023-04-30T00:44:40;11.10;99.90
7163;DHT22;3623;47.098;15.446;2023-04-30T00:47:08;10.90;99.90
7163;DHT22;3623;47.098;15.446;2023-04-30T00:49:35;10.90;99.90
7163;DHT22;3623;47.098;15.446;2023-04-30T00:52:03;10.80;99.90
7163;DHT22;3623;47.098;15.446;2023-04-30T00:54:31;10.70;99.90
7163;DHT22;3623;47.098;15.446;2023-04-30T00:56:58;10.70;99.90
7163;DHT22;3623;47.098;15.446;2023-04-30T00:59:26;10.60;99.90
7163;DHT22;3623;47.098;15.446;2023-04-30T01:01:54;10.60;99.90
7163;DHT22;3623;47.098;15.446;2023-04-30T01:04:23;10.70;99.90
7163;DHT22;3623;47.098;15.446;2023-04-30T01:06:50;10.60;99.90
7163;DHT22;3623;47.098;15.446;2023-04-30T01:09:18;10.60;99.90
7163;DHT22;3623;47.098;15.446;2023-04-30T01:11:53;10.60;99.90
7163;DHT22;3623;47.098;15.446;2023-04-30T01:14:26;10.50;99.90
7163;DHT22;3623;47.098;15.446;2023-04-30T01:17:02;10.50;99.90
7163;DHT22;3623;47.098;15.446;2023-04-30T01:19:40;10.50;99.90
7163;DHT22;3623;47.098;15.446;2023-04-30T01:22:11;10.50;99.90
7163;DHT22;3623;47.098;15.446;2023-04-30T01:24:58;10.40;99.90
7163;DHT22;3623;47.098;15.446;2023-04-30T01:30:09;10.20;99.90
7163;DHT22;3623;47.098;15.446;2023-04-30T01:32:37;10.20;99.90
7163;DHT22;3623;47.098;15.446;2023-04-30T01:35:05;10.20;99.90
7163;DHT22;3623;47.098;15.446;2023-04-30T01:37:38;10.10;99.90
7163;DHT22;3623;47.098;15.446;2023-04-30T01:40:21;10.10;99.90
7163;DHT22;3623;47.098;15.446;2023-04-30T01:42:56;10.00;99.90
7163;DHT22;3623;47.098;15.446;2023-04-30T01:45:45;10.00;99.90
7163;DHT22;3623;47.098;15.446;2023-04-30T01:48:21;10.00;99.90
7163;DHT22;3623;47.098;15.446;2023-04-30T01:50:57;9.90;99.90
7163;DHT22;3623;47.098;15.446;2023-04-30T01:53:37;9.90;99.90
7163;DHT22;3623;47.098;15.446;2023-04-30T01:56:10;9.90;99.90
7163;DHT22;3623;47.098;15.446;2023-04-30T01:58:39;9.90;99.90
7163;DHT22;3623;47.098;15.446;2023-04-30T02:01:25;9.80;99.90
7163;DHT22;3623;47.098;15.446;2023-04-30T02:03:52;9.80;99.90
7163;DHT22;3623;47.098;15.446;2023-04-30T02:06:19;9.70;99.90
7163;DHT22;3623;47.098;15.446;2023-04-30T02:08:46;9.70;99.90
7163;DHT22;3623;47.098;15.446;2023-04-30T02:11:13;9.70;99.90
7163;DHT22;3623;47.098;15.446;2023-04-30T02:13:41;9.70;99.90
7163;DHT22;3623;47.098;15.446;2023-04-30T02:16:09;9.70;99.90
7163;DHT22;3623;47.098;15.446;2023-04-30T02:18:36;9.60;99.90
7163;DHT22;3623;47.098;15.446;2023-04-30T02:21:03;9.70;99.90
7163;DHT22;3623;47.098;15.446;2023-04-30T02:23:30;9.70;99.90
7163;DHT22;3623;47.098;15.446;2023-04-30T02:25:57;9.70;99.90
7163;DHT22;3623;47.098;15.446;2023-04-30T02:28:25;9.60;99.90
7163;DHT22;3623;47.098;15.446;2023-04-30T02:30:52;9.60;99.90
7163;DHT22;3623;47.098;15.446;2023-04-30T02:33:20;9.60;99.90
7163;DHT22;3623;47.098;15.446;2023-04-30T02:35:47;9.60;99.90
7163;DHT22;3623;47.098;15.446;2023-04-30T02:38:15;9.60;99.90
7163;DHT22;3623;47.098;15.446;2023-04-30T02:40:42;9.60;99.90
7163;DHT22;3623;47.098;15.446;2023-04-30T02:43:09;9.60;99.90
7163;DHT22;3623;47.098;15.446;2023-04-30T02:45:36;9.70;99.90
7163;DHT22;3623;47.098;15.446;2023-04-30T02:48:03;9.80;99.90
7163;DHT22;3623;47.098;15.446;2023-04-30T02:50:33;9.80;99.90
7163;DHT22;3623;47.098;15.446;2023-04-30T02:53:00;9.80;99.90
7163;DHT22;3623;47.098;15.446;2023-04-30T02:55:27;9.90;99.90
7163;DHT22;3623;47.098;15.446;2023-04-30T02:57:54;10.00;99.90
7163;DHT22;3623;47.098;15.446;2023-04-30T03:00:21;10.00;99.90
7163;DHT22;3623;47.098;15.446;2023-04-30T03:02:48;10.10;99.90
7163;DHT22;3623;47.098;15.446;2023-04-30T03:05:16;10.10;99.90
7163;DHT22;3623;47.098;15.446;2023-04-30T03:07:44;10.10;99.90
7163;DHT22;3623;47.098;15.446;2023-04-30T03:10:11;10.10;99.90
7163;DHT22;3623;47.098;15.446;2023-04-30T03:12:38;10.10;99.90
7163;DHT22;3623;47.098;15.446;2023-04-30T03:15:07;10.10;99.90
7163;DHT22;3623;47.098;15.446;2023-04-30T03:17:34;10.10;99.90
7163;DHT22;3623;47.098;15.446;2023-04-30T03:20:01;10.10;99.90
7163;DHT22;3623;47.098;15.446;2023-04-30T03:22:29;10.10;99.90
7163;DHT22;3623;47.098;15.446;2023-04-30T03:24:57;10.10;99.90
7163;DHT22;3623;47.098;15.446;2023-04-30T03:27:24;10.10;99.90
7163;DHT22;3623;47.098;15.446;2023-04-30T03:29:51;10.10;99.90
7163;DHT22;3623;47.098;15.446;2023-04-30T03:32:19;10.10;99.90
7163;DHT22;3623;47.098;15.446;2023-04-30T03:34:46;10.20;99.90
7163;DHT22;3623;47.098;15.446;2023-04-30T03:37:13;10.20;99.90
7163;DHT22;3623;47.098;15.446;2023-04-30T03:39:40;10.20;99.90
7163;DHT22;3623;47.098;15.446;2023-04-30T03:42:08;10.20;99.90
7163;DHT22;3623;47.098;15.446;2023-04-30T03:44:35;10.20;99.90
7163;DHT22;3623;47.098;15.446;2023-04-30T03:47:03;10.20;99.90
7163;DHT22;3623;47.098;15.446;2023-04-30T03:49:31;10.20;99.90
7163;DHT22;3623;47.098;15.446;2023-04-30T03:51:58;10.10;99.90
7163;DHT22;3623;47.098;15.446;2023-04-30T03:54:25;10.20;99.90
7163;DHT22;3623;47.098;15.446;2023-04-30T03:56:53;10.10;99.90
7163;DHT22;3623;47.098;15.446;2023-04-30T03:59:22;10.20;99.90
7163;DHT22;3623;47.098;15.446;2023-04-30T04:01:49;10.10;99.90
7163;DHT22;3623;47.098;15.446;2023-04-30T04:04:16;10.10;99.90
7163;DHT22;3623;47.098;15.446;2023-04-30T04:06:43;10.00;99.90
7163;DHT22;3623;47.098;15.446;2023-04-30T04:09:11;10.00;99.90
7163;DHT22;3623;47.098;15.446;2023-04-30T04:11:38;10.10;99.90
7163;DHT22;3623;47.098;15.446;2023-04-30T04:14:05;10.10;99.90
7163;DHT22;3623;47.098;15.446;2023-04-30T04:16:33;10.10;99.90
7163;DHT22;3623;47.098;15.446;2023-04-30T04:19:01;10.10;99.90
7163;DHT22;3623;47.098;15.446;2023-04-30T04:21:29;10.20;99.90
7163;DHT22;3623;47.098;15.446;2023-04-30T04:23:56;10.20;99.90
7163;DHT22;3623;47.098;15.446;2023-04-30T04:26:23;10.30;99.90
7163;DHT22;3623;47.098;15.446;2023-04-30T04:28:50;10.30;99.90
7163;DHT22;3623;47.098;15.446;2023-04-30T04:31:17;10.30;99.90
7163;DHT22;3623;47.098;15.446;2023-04-30T04:33:46;10.10;99.90
7163;DHT22;3623;47.098;15.446;2023-04-30T04:36:13;10.20;99.90
7163;DHT22;3623;47.098;15.446;2023-04-30T04:38:41;10.30;99.90
7163;DHT22;3623;47.098;15.446;2023-04-30T04:41:08;10.40;99.90
7163;DHT22;3623;47.098;15.446;2023-04-30T04:43:35;10.40;99.90
7163;DHT22;3623;47.098;15.446;2023-04-30T04:46:03;10.50;99.90
7163;DHT22;3623;47.098;15.446;2023-04-30T04:48:30;10.60;99.90
7163;DHT22;3623;47.098;15.446;2023-04-30T04:50:58;10.60;99.90
7163;DHT22;3623;47.098;15.446;2023-04-30T04:53:25;10.70;99.90
7163;DHT22;3623;47.098;15.446;2023-04-30T04:55:52;10.70;99.90
7163;DHT22;3623;47.098;15.446;2023-04-30T04:58:19;10.90;99.90
7163;DHT22;3623;47.098;15.446;2023-04-30T05:00:47;10.90;99.90
7163;DHT22;3623;47.098;15.446;2023-04-30T05:03:14;11.10;99.90
7163;DHT22;3623;47.098;15.446;2023-04-30T05:05:42;11.10;99.90
7163;DHT22;3623;47.098;15.446;2023-04-30T05:08:10;11.10;99.90
7163;DHT22;3623;47.098;15.446;2023-04-30T05:10:37;11.20;99.90
7163;DHT22;3623;47.098;15.446;2023-04-30T05:13:04;11.20;99.90
7163;DHT22;3623;47.098;15.446;2023-04-30T05:15:31;11.20;99.90
7163;DHT22;3623;47.098;15.446;2023-04-30T05:17:59;11.30;99.90
7163;DHT22;3623;47.098;15.446;2023-04-30T05:20:26;11.30;99.90
7163;DHT22;3623;47.098;15.446;2023-04-30T05:22:53;11.40;99.90
7163;DHT22;3623;47.098;15.446;2023-04-30T05:25:21;11.60;99.90
7163;DHT22;3623;47.098;15.446;2023-04-30T05:27:48;11.60;99.90
7163;DHT22;3623;47.098;15.446;2023-04-30T05:30:16;11.60;99.90
7163;DHT22;3623;47.098;15.446;2023-04-30T05:32:43;11.80;99.90
7163;DHT22;3623;47.098;15.446;2023-04-30T05:35:15;11.70;99.90
7163;DHT22;3623;47.098;15.446;2023-04-30T05:37:42;11.90;99.90
7163;DHT22;3623;47.098;15.446;2023-04-30T05:40:10;11.80;99.90
7163;DHT22;3623;47.098;15.446;2023-04-30T05:42:39;11.90;99.90
7163;DHT22;3623;47.098;15.446;2023-04-30T05:45:09;12.10;99.90
7163;DHT22;3623;47.098;15.446;2023-04-30T05:47:37;12.30;99.90
7163;DHT22;3623;47.098;15.446;2023-04-30T05:50:05;12.30;99.90
7163;DHT22;3623;47.098;15.446;2023-04-30T05:52:32;12.30;99.90
7163;DHT22;3623;47.098;15.446;2023-04-30T05:54:59;12.30;99.90
7163;DHT22;3623;47.098;15.446;2023-04-30T05:57:27;12.20;99.90
7163;DHT22;3623;47.098;15.446;2023-04-30T05:59:56;12.10;99.90
7163;DHT22;3623;47.098;15.446;2023-04-30T06:02:23;12.10;99.90
7163;DHT22;3623;47.098;15.446;2023-04-30T06:04:50;12.10;99.90
7163;DHT22;3623;47.098;15.446;2023-04-30T06:07:17;12.00;99.90
7163;DHT22;3623;47.098;15.446;2023-04-30T06:09:45;12.00;99.90
7163;DHT22;3623;47.098;15.446;2023-04-30T06:12:12;12.00;99.90
7163;DHT22;3623;47.098;15.446;2023-04-30T06:14:39;12.00;99.90
7163;DHT22;3623;47.098;15.446;2023-04-30T06:17:11;12.10;99.90
7163;DHT22;3623;47.098;15.446;2023-04-30T06:19:38;12.20;99.90
7163;DHT22;3623;47.098;15.446;2023-04-30T06:22:05;12.30;99.90
7163;DHT22;3623;47.098;15.446;2023-04-30T06:24:33;12.30;99.90
7163;DHT22;3623;47.098;15.446;2023-04-30T06:27:00;12.40;99.90
7163;DHT22;3623;47.098;15.446;2023-04-30T06:29:27;12.60;99.90
7163;DHT22;3623;47.098;15.446;2023-04-30T06:31:54;12.90;99.90
7163;DHT22;3623;47.098;15.446;2023-04-30T06:34:23;12.90;99.90
7163;DHT22;3623;47.098;15.446;2023-04-30T06:36:50;13.10;99.90
7163;DHT22;3623;47.098;15.446;2023-04-30T06:39:17;13.30;99.90
7163;DHT22;3623;47.098;15.446;2023-04-30T06:41:44;13.10;99.90
7163;DHT22;3623;47.098;15.446;2023-04-30T06:44:12;13.20;99.90
7163;DHT22;3623;47.098;15.446;2023-04-30T06:46:40;13.40;99.90
7163;DHT22;3623;47.098;15.446;2023-04-30T06:49:07;13.50;99.90
7163;DHT22;3623;47.098;15.446;2023-04-30T06:51:35;13.40;99.90
7163;DHT22;3623;47.098;15.446;2023-04-30T06:54:02;13.50;99.90
7163;DHT22;3623;47.098;15.446;2023-04-30T06:56:30;13.30;99.90
7163;DHT22;3623;47.098;15.446;2023-04-30T06:58:57;13.30;99.90
7163;DHT22;3623;47.098;15.446;2023-04-30T07:01:25;13.60;99.90
7163;DHT22;3623;47.098;15.446;2023-04-30T07:03:52;13.80;99.90
7163;DHT22;3623;47.098;15.446;2023-04-30T07:06:19;13.70;99.90
7163;DHT22;3623;47.098;15.446;2023-04-30T07:08:47;14.30;99.90
7163;DHT22;3623;47.098;15.446;2023-04-30T07:11:14;14.60;99.90
7163;DHT22;3623;47.098;15.446;2023-04-30T07:13:42;14.60;99.90
7163;DHT22;3623;47.098;15.446;2023-04-30T07:16:09;14.80;99.90
7163;DHT22;3623;47.098;15.446;2023-04-30T07:18:36;14.50;99.90
7163;DHT22;3623;47.098;15.446;2023-04-30T07:21:04;14.80;99.90
7163;DHT22;3623;47.098;15.446;2023-04-30T07:23:33;15.40;99.90
7163;DHT22;3623;47.098;15.446;2023-04-30T07:26:01;15.50;99.90
7163;DHT22;3623;47.098;15.446;2023-04-30T07:28:28;15.30;99.90
7163;DHT22;3623;47.098;15.446;2023-04-30T07:30:55;15.10;99.90
7163;DHT22;3623;47.098;15.446;2023-04-30T07:33:23;15.30;99.90
7163;DHT22;3623;47.098;15.446;2023-04-30T07:35:50;15.40;99.90
7163;DHT22;3623;47.098;15.446;2023-04-30T07:38:19;15.40;99.90
7163;DHT22;3623;47.098;15.446;2023-04-30T07:40:46;15.10;99.90
7163;DHT22;3623;47.098;15.446;2023-04-30T07:43:14;15.00;99.90
7163;DHT22;3623;47.098;15.446;2023-04-30T07:45:42;14.60;99.90
7163;DHT22;3623;47.098;15.446;2023-04-30T07:48:09;14.50;99.90
7163;DHT22;3623;47.098;15.446;2023-04-30T07:50:36;14.40;99.90
7163;DHT22;3623;47.098;15.446;2023-04-30T07:53:03;14.40;99.90
7163;DHT22;3623;47.098;15.446;2023-04-30T07:55:34;14.30;99.90
7163;DHT22;3623;47.098;15.446;2023-04-30T07:58:01;14.40;99.90
7163;DHT22;3623;47.098;15.446;2023-04-30T08:00:30;14.40;99.90
7163;DHT22;3623;47.098;15.446;2023-04-30T08:02:57;14.50;99.90
7163;DHT22;3623;47.098;15.446;2023-04-30T08:05:25;14.60;99.90
7163;DHT22;3623;47.098;15.446;2023-04-30T08:07:52;14.70;99.90
7163;DHT22;3623;47.098;15.446;2023-04-30T08:10:19;14.60;99.90
7163;DHT22;3623;47.098;15.446;2023-04-30T08:12:47;14.70;99.90
7163;DHT22;3623;47.098;15.446;2023-04-30T08:15:16;14.90;99.90
7163;DHT22;3623;47.098;15.446;2023-04-30T08:17:48;15.10;99.90
7163;DHT22;3623;47.098;15.446;2023-04-30T08:20:15;15.20;99.90
7163;DHT22;3623;47.098;15.446;2023-04-30T08:22:43;15.30;99.90
7163;DHT22;3623;47.098;15.446;2023-04-30T08:25:10;15.30;99.90
7163;DHT22;3623;47.098;15.446;2023-04-30T08:27:38;15.10;99.90
7163;DHT22;3623;47.098;15.446;2023-04-30T08:30:06;14.90;99.90
7163;DHT22;3623;47.098;15.446;2023-04-30T08:32:34;14.90;99.90
7163;DHT22;3623;47.098;15.446;2023-04-30T08:35:03;14.90;99.90
7163;DHT22;3623;47.098;15.446;2023-04-30T08:37:30;14.90;99.90
7163;DHT22;3623;47.098;15.446;2023-04-30T08:39:58;15.10;99.90
7163;DHT22;3623;47.098;15.446;2023-04-30T08:42:29;15.20;99.90
7163;DHT22;3623;47.098;15.446;2023-04-30T08:44:58;15.30;99.90
7163;DHT22;3623;47.098;15.446;2023-04-30T08:47:26;15.60;99.90
7163;DHT22;3623;47.098;15.446;2023-04-30T08:49:53;15.80;99.90
7163;DHT22;3623;47.098;15.446;2023-04-30T08:52:22;16.00;99.90
7163;DHT22;3623;47.098;15.446;2023-04-30T08:54:51;16.10;99.90
7163;DHT22;3623;47.098;15.446;2023-04-30T08:57:20;16.10;99.90
7163;DHT22;3623;47.098;15.446;2023-04-30T08:59:47;16.40;99.90
7163;DHT22;3623;47.098;15.446;2023-04-30T09:02:15;16.70;99.90
7163;DHT22;3623;47.098;15.446;2023-04-30T09:04:42;16.90;99.90
7163;DHT22;3623;47.098;15.446;2023-04-30T09:07:09;17.20;99.90
7163;DHT22;3623;47.098;15.446;2023-04-30T09:09:40;17.00;99.90
7163;DHT22;3623;47.098;15.446;2023-04-30T09:12:12;17.20;99.90
7163;DHT22;3623;47.098;15.446;2023-04-30T09:14:56;17.40;99.90
7163;DHT22;3623;47.098;15.446;2023-04-30T09:17:24;17.40;99.90
7163;DHT22;3623;47.098;15.446;2023-04-30T09:19:52;17.60;99.90
7163;DHT22;3623;47.098;15.446;2023-04-30T09:22:20;17.60;99.90
7163;DHT22;3623;47.098;15.446;2023-04-30T09:24:50;17.90;99.90
7163;DHT22;3623;47.098;15.446;2023-04-30T09:27:18;17.70;99.90
7163;DHT22;3623;47.098;15.446;2023-04-30T09:29:46;17.60;99.90
7163;DHT22;3623;47.098;15.446;2023-04-30T09:32:13;17.50;99.90
7163;DHT22;3623;47.098;15.446;2023-04-30T09:34:40;17.50;99.90
7163;DHT22;3623;47.098;15.446;2023-04-30T09:37:08;17.30;99.90
7163;DHT22;3623;47.098;15.446;2023-04-30T09:39:47;17.30;99.90
7163;DHT22;3623;47.098;15.446;2023-04-30T09:42:15;16.90;99.90
7163;DHT22;3623;47.098;15.446;2023-04-30T09:44:43;16.80;99.90
7163;DHT22;3623;47.098;15.446;2023-04-30T09:47:11;16.70;99.90
7163;DHT22;3623;47.098;15.446;2023-04-30T09:49:40;16.50;99.90
7163;DHT22;3623;47.098;15.446;2023-04-30T09:52:08;16.40;99.90
7163;DHT22;3623;47.098;15.446;2023-04-30T09:54:36;16.50;99.90
7163;DHT22;3623;47.098;15.446;2023-04-30T09:57:09;16.40;99.90
7163;DHT22;3623;47.098;15.446;2023-04-30T09:59:37;16.40;99.90
7163;DHT22;3623;47.098;15.446;2023-04-30T10:02:06;16.30;99.90
7163;DHT22;3623;47.098;15.446;2023-04-30T10:04:34;16.30;99.90
7163;DHT22;3623;47.098;15.446;2023-04-30T10:07:04;16.40;99.90
7163;DHT22;3623;47.098;15.446;2023-04-30T10:09:38;16.40;99.90
7163;DHT22;3623;47.098;15.446;2023-04-30T10:12:13;16.40;99.90
7163;DHT22;3623;47.098;15.446;2023-04-30T10:14:45;16.30;99.90
7163;DHT22;3623;47.098;15.446;2023-04-30T10:17:15;16.20;99.90
7163;DHT22;3623;47.098;15.446;2023-04-30T10:19:47;16.20;99.90
7163;DHT22;3623;47.098;15.446;2023-04-30T10:22:15;16.40;99.90
7163;DHT22;3623;47.098;15.446;2023-04-30T10:24:42;16.30;99.90
7163;DHT22;3623;47.098;15.446;2023-04-30T10:27:13;16.30;99.90
7163;DHT22;3623;47.098;15.446;2023-04-30T10:29:41;16.40;99.90
7163;DHT22;3623;47.098;15.446;2023-04-30T10:32:11;16.40;99.90
7163;DHT22;3623;47.098;15.446;2023-04-30T10:34:45;16.60;99.90
7163;DHT22;3623;47.098;15.446;2023-04-30T10:37:20;17.40;99.90
7163;DHT22;3623;47.098;15.446;2023-04-30T10:39:50;17.80;99.90
7163;DHT22;3623;47.098;15.446;2023-04-30T10:42:19;17.70;99.90
7163;DHT22;3623;47.098;15.446;2023-04-30T10:44:46;17.30;99.90
7163;DHT22;3623;47.098;15.446;2023-04-30T10:47:14;16.80;99.90
7163;DHT22;3623;47.098;15.446;2023-04-30T10:49:45;16.40;99.90
7163;DHT22;3623;47.098;15.446;2023-04-30T10:52:13;16.00;99.90
7163;DHT22;3623;47.098;15.446;2023-04-30T10:54:48;15.80;99.90
7163;DHT22;3623;47.098;15.446;2023-04-30T10:57:16;15.70;99.90
7163;DHT22;3623;47.098;15.446;2023-04-30T10:59:51;15.50;99.90
7163;DHT22;3623;47.098;15.446;2023-04-30T11:02:19;15.60;99.90
7163;DHT22;3623;47.098;15.446;2023-04-30T11:05:16;15.70;99.90
7163;DHT22;3623;47.098;15.446;2023-04-30T11:07:47;15.70;99.90
7163;DHT22;3623;47.098;15.446;2023-04-30T11:10:15;15.90;99.90
7163;DHT22;3623;47.098;15.446;2023-04-30T11:12:47;16.00;99.90
7163;DHT22;3623;47.098;15.446;2023-04-30T11:15:17;16.00;99.90
7163;DHT22;3623;47.098;15.446;2023-04-30T11:17:46;16.30;99.90
7163;DHT22;3623;47.098;15.446;2023-04-30T11:20:18;17.80;99.90
7163;DHT22;3623;47.098;15.446;2023-04-30T11:22:45;19.60;99.90
7163;DHT22;3623;47.098;15.446;2023-04-30T11:25:17;20.50;99.90
7163;DHT22;3623;47.098;15.446;2023-04-30T11:27:44;19.80;99.90
7163;DHT22;3623;47.098;15.446;2023-04-30T11:30:13;18.80;99.90
7163;DHT22;3623;47.098;15.446;2023-04-30T11:32:43;18.20;99.90
7163;DHT22;3623;47.098;15.446;2023-04-30T11:35:12;17.80;99.90
7163;DHT22;3623;47.098;15.446;2023-04-30T11:37:40;17.70;99.90
7163;DHT22;3623;47.098;15.446;2023-04-30T11:40:10;17.30;99.90
7163;DHT22;3623;47.098;15.446;2023-04-30T11:42:38;17.50;99.90
7163;DHT22;3623;47.098;15.446;2023-04-30T11:45:07;17.90;99.90
7163;DHT22;3623;47.098;15.446;2023-04-30T11:47:39;18.00;99.90
7163;DHT22;3623;47.098;15.446;2023-04-30T11:50:09;18.20;99.90
7163;DHT22;3623;47.098;15.446;2023-04-30T11:52:37;19.70;99.90
7163;DHT22;3623;47.098;15.446;2023-04-30T11:55:16;22.10;99.90
7163;DHT22;3623;47.098;15.446;2023-04-30T11:57:45;23.60;99.90
7163;DHT22;3623;47.098;15.446;2023-04-30T12:00:14;24.30;99.90
7163;DHT22;3623;47.098;15.446;2023-04-30T12:02:43;24.10;97.60
7163;DHT22;3623;47.098;15.446;2023-04-30T12:05:14;23.80;97.30
7163;DHT22;3623;47.098;15.446;2023-04-30T12:07:49;25.20;98.70
7163;DHT22;3623;47.098;15.446;2023-04-30T12:10:18;23.70;96.20
7163;DHT22;3623;47.098;15.446;2023-04-30T12:12:46;22.40;96.00
7163;DHT22;3623;47.098;15.446;2023-04-30T12:15:15;20.90;98.10
7163;DHT22;3623;47.098;15.446;2023-04-30T12:17:44;20.30;99.50
7163;DHT22;3623;47.098;15.446;2023-04-30T12:20:14;19.80;98.00
7163;DHT22;3623;47.098;15.446;2023-04-30T12:22:41;19.60;98.00
7163;DHT22;3623;47.098;15.446;2023-04-30T12:25:12;19.30;98.10
7163;DHT22;3623;47.098;15.446;2023-04-30T12:27:40;18.90;98.80
7163;DHT22;3623;47.098;15.446;2023-04-30T12:30:09;18.60;99.90
7163;DHT22;3623;47.098;15.446;2023-04-30T12:32:43;18.30;99.10
7163;DHT22;3623;47.098;15.446;2023-04-30T12:35:14;18.20;99.80
7163;DHT22;3623;47.098;15.446;2023-04-30T12:37:43;18.10;99.90
7163;DHT22;3623;47.098;15.446;2023-04-30T12:40:11;18.00;99.70
7163;DHT22;3623;47.098;15.446;2023-04-30T12:42:41;17.80;98.60
7163;DHT22;3623;47.098;15.446;2023-04-30T12:45:09;17.50;99.10
7163;DHT22;3623;47.098;15.446;2023-04-30T12:47:40;17.50;99.10
7163;DHT22;3623;47.098;15.446;2023-04-30T12:50:08;17.50;98.50
7163;DHT22;3623;47.098;15.446;2023-04-30T12:52:39;17.60;99.90
7163;DHT22;3623;47.098;15.446;2023-04-30T12:55:16;17.60;99.90
7163;DHT22;3623;47.098;15.446;2023-04-30T12:58:03;17.70;99.90
7163;DHT22;3623;47.098;15.446;2023-04-30T13:00:43;18.00;99.90
7163;DHT22;3623;47.098;15.446;2023-04-30T13:03:10;18.10;99.90
7163;DHT22;3623;47.098;15.446;2023-04-30T13:05:38;18.30;99.90
7163;DHT22;3623;47.098;15.446;2023-04-30T13:08:07;18.50;98.90
7163;DHT22;3623;47.098;15.446;2023-04-30T13:10:34;18.60;99.20
7163;DHT22;3623;47.098;15.446;2023-04-30T13:13:01;18.60;98.10
7163;DHT22;3623;47.098;15.446;2023-04-30T13:15:28;18.60;98.50
7163;DHT22;3623;47.098;15.446;2023-04-30T13:17:55;18.50;99.10
7163;DHT22;3623;47.098;15.446;2023-04-30T13:20:23;18.10;97.80
7163;DHT22;3623;47.098;15.446;2023-04-30T13:22:51;18.10;99.00
7163;DHT22;3623;47.098;15.446;2023-04-30T13:25:20;18.20;97.90
7163;DHT22;3623;47.098;15.446;2023-04-30T13:27:47;18.20;99.40
7163;DHT22;3623;47.098;15.446;2023-04-30T13:30:14;19.00;97.40
7163;DHT22;3623;47.098;15.446;2023-04-30T13:32:41;20.60;96.90
7163;DHT22;3623;47.098;15.446;2023-04-30T13:35:09;21.70;93.30
7163;DHT22;3623;47.098;15.446;2023-04-30T13:37:37;22.90;94.90
7163;DHT22;3623;47.098;15.446;2023-04-30T13:40:05;24.10;93.20
7163;DHT22;3623;47.098;15.446;2023-04-30T13:42:36;23.30;91.10
7163;DHT22;3623;47.098;15.446;2023-04-30T13:45:04;22.70;92.30
7163;DHT22;3623;47.098;15.446;2023-04-30T13:47:31;22.10;91.50
7163;DHT22;3623;47.098;15.446;2023-04-30T13:50:00;22.00;92.30
7163;DHT22;3623;47.098;15.446;2023-04-30T13:52:27;23.00;91.60
7163;DHT22;3623;47.098;15.446;2023-04-30T13:54:54;23.50;91.50
7163;DHT22;3623;47.098;15.446;2023-04-30T13:57:22;24.20;89.70
7163;DHT22;3623;47.098;15.446;2023-04-30T13:59:50;24.40;88.50
7163;DHT22;3623;47.098;15.446;2023-04-30T14:02:17;24.80;89.30
7163;DHT22;3623;47.098;15.446;2023-04-30T14:04:44;24.20;89.10
7163;DHT22;3623;47.098;15.446;2023-04-30T14:07:12;25.20;89.00
7163;DHT22;3623;47.098;15.446;2023-04-30T14:09:39;25.70;85.50
7163;DHT22;3623;47.098;15.446;2023-04-30T14:12:06;24.30;84.30
7163;DHT22;3623;47.098;15.446;2023-04-30T14:14:33;23.80;87.70
7163;DHT22;3623;47.098;15.446;2023-04-30T14:17:02;23.50;86.10
7163;DHT22;3623;47.098;15.446;2023-04-30T14:19:29;22.30;86.70
7163;DHT22;3623;47.098;15.446;2023-04-30T14:21:57;21.70;86.30
7163;DHT22;3623;47.098;15.446;2023-04-30T14:24:24;21.60;89.10
7163;DHT22;3623;47.098;15.446;2023-04-30T14:26:52;21.10;90.30
7163;DHT22;3623;47.098;15.446;2023-04-30T14:29:19;21.00;90.80
7163;DHT22;3623;47.098;15.446;2023-04-30T14:31:47;21.30;89.80
7163;DHT22;3623;47.098;15.446;2023-04-30T14:34:15;21.90;89.10
7163;DHT22;3623;47.098;15.446;2023-04-30T14:36:42;22.60;90.70
7163;DHT22;3623;47.098;15.446;2023-04-30T14:39:09;23.50;82.70
7163;DHT22;3623;47.098;15.446;2023-04-30T14:41:36;24.20;82.30
7163;DHT22;3623;47.098;15.446;2023-04-30T14:44:03;24.40;83.90
7163;DHT22;3623;47.098;15.446;2023-04-30T14:46:31;24.90;81.80
7163;DHT22;3623;47.098;15.446;2023-04-30T14:48:59;24.00;81.20
7163;DHT22;3623;47.098;15.446;2023-04-30T14:51:27;24.20;81.80
7163;DHT22;3623;47.098;15.446;2023-04-30T14:53:56;24.40;82.50
7163;DHT22;3623;47.098;15.446;2023-04-30T14:56:23;24.60;82.90
7163;DHT22;3623;47.098;15.446;2023-04-30T14:58:50;25.00;80.50
7163;DHT22;3623;47.098;15.446;2023-04-30T15:01:18;25.20;80.70
7163;DHT22;3623;47.098;15.446;2023-04-30T15:03:45;25.00;77.80
7163;DHT22;3623;47.098;15.446;2023-04-30T15:06:12;24.00;77.90
7163;DHT22;3623;47.098;15.446;2023-04-30T15:08:41;24.10;83.40
7163;DHT22;3623;47.098;15.446;2023-04-30T15:11:08;24.10;76.80
7163;DHT22;3623;47.098;15.446;2023-04-30T15:13:37;23.10;78.00
7163;DHT22;3623;47.098;15.446;2023-04-30T15:16:05;22.60;81.50
7163;DHT22;3623;47.098;15.446;2023-04-30T15:18:33;22.70;82.00
7163;DHT22;3623;47.098;15.446;2023-04-30T15:21:00;22.60;81.70
7163;DHT22;3623;47.098;15.446;2023-04-30T15:23:27;22.70;83.20
7163;DHT22;3623;47.098;15.446;2023-04-30T15:25:57;22.20;83.30
7163;DHT22;3623;47.098;15.446;2023-04-30T15:28:24;21.30;83.40
7163;DHT22;3623;47.098;15.446;2023-04-30T15:30:52;20.60;85.90
7163;DHT22;3623;47.098;15.446;2023-04-30T15:33:19;20.00;86.10
7163;DHT22;3623;47.098;15.446;2023-04-30T15:35:49;19.70;86.70
7163;DHT22;3623;47.098;15.446;2023-04-30T15:38:16;19.40;86.10
7163;DHT22;3623;47.098;15.446;2023-04-30T15:40:43;19.20;88.20
7163;DHT22;3623;47.098;15.446;2023-04-30T15:43:11;18.90;90.00
7163;DHT22;3623;47.098;15.446;2023-04-30T15:45:39;18.80;91.20
7163;DHT22;3623;47.098;15.446;2023-04-30T15:48:06;18.40;89.60
7163;DHT22;3623;47.098;15.446;2023-04-30T15:50:33;18.20;90.00
7163;DHT22;3623;47.098;15.446;2023-04-30T15:53:00;17.90;91.50
7163;DHT22;3623;47.098;15.446;2023-04-30T15:55:27;17.80;91.10
7163;DHT22;3623;47.098;15.446;2023-04-30T15:57:54;17.50;91.00